createdAt,value
2018-08-09T00:00:06.703Z,101444.86
2018-08-09T00:02:35.595Z,101447.94
2018-08-09T00:05:05.083Z,101449.30
2018-08-09T00:07:33.967Z,101448.45
2018-08-09T00:10:02.928Z,101439.44
2018-08-09T00:12:31.926Z,101444.86
2018-08-09T00:15:00.827Z,101440.41
2018-08-09T00:17:30.275Z,101441.03
2018-08-09T00:19:59.246Z,101442.00
2018-08-09T00:22:28.147Z,101435.36
2018-08-09T00:24:57.144Z,101435.09
2018-08-09T00:27:26.019Z,101433.84
2018-08-09T00:29:54.983Z,101434.23
2018-08-09T00:32:23.871Z,101430.03
2018-08-09T00:34:52.779Z,101426.92
2018-08-09T00:37:21.785Z,101426.81
2018-08-09T00:39:50.694Z,101419.05
2018-08-09T00:42:19.727Z,101415.20
2018-08-09T00:44:48.925Z,101417.56
2018-08-09T00:47:17.843Z,101424.95
2018-08-09T00:49:46.739Z,101430.77
2018-08-09T00:52:15.726Z,101416.44
2018-08-09T00:54:44.603Z,101418.03
2018-08-09T00:57:13.535Z,101407.23
2018-08-09T00:59:42.426Z,101405.75
2018-08-09T01:02:12.028Z,101411.42
2018-08-09T01:04:40.947Z,101411.44
2018-08-09T01:07:09.875Z,101416.98
2018-08-09T01:09:38.934Z,101402.19
2018-08-09T01:12:07.879Z,101406.22
2018-08-09T01:14:36.824Z,101403.27
2018-08-09T01:17:05.808Z,101408.36
2018-08-09T01:19:34.825Z,101402.91
2018-08-09T01:22:03.846Z,101402.04
2018-08-09T01:24:32.767Z,101395.39
2018-08-09T01:27:01.767Z,101397.61
2018-08-09T01:29:30.782Z,101397.34
2018-08-09T01:31:59.649Z,101400.55
2018-08-09T01:34:28.539Z,101401.91
2018-08-09T01:36:57.463Z,101404.27
2018-08-09T01:39:31.867Z,101404.64
2018-08-09T01:42:12.273Z,101409.33
2018-08-09T01:44:41.215Z,101414.66
2018-08-09T01:47:10.199Z,101415.52
2018-08-09T01:49:39.104Z,101404.28
2018-08-09T01:52:08.021Z,101415.43
2018-08-09T01:54:36.957Z,101409.49
2018-08-09T01:57:05.861Z,101405.92
2018-08-09T01:59:34.825Z,101398.84
2018-08-09T02:02:03.819Z,101400.05
2018-08-09T02:04:32.737Z,101396.97
2018-08-09T02:07:07.344Z,101385.83
2018-08-09T02:09:41.720Z,101385.98
2018-08-09T02:12:10.639Z,101385.72
2018-08-09T02:14:39.558Z,101382.03
2018-08-09T02:17:08.495Z,101373.48
2018-08-09T02:19:37.459Z,101377.21
2018-08-09T02:22:06.427Z,101378.78
2018-08-09T02:24:35.373Z,101372.98
2018-08-09T02:27:04.342Z,101369.28
2018-08-09T02:29:33.263Z,101372.35
2018-08-09T02:32:02.246Z,101371.09
2018-08-09T02:34:31.200Z,101369.63
2018-08-09T02:37:00.083Z,101360.23
2018-08-09T02:39:28.999Z,101359.52
2018-08-09T02:41:57.912Z,101356.80
2018-08-09T02:44:26.860Z,101362.00
2018-08-09T02:46:55.784Z,101356.32
2018-08-09T02:49:24.740Z,101354.97
2018-08-09T02:51:53.616Z,101365.84
2018-08-09T02:54:22.533Z,101358.31
2018-08-09T02:56:51.466Z,101352.48
2018-08-09T02:59:20.384Z,101350.73
2018-08-09T03:01:55.916Z,101347.68
2018-08-09T03:04:24.916Z,101343.81
2018-08-09T03:06:53.820Z,101336.31
2018-08-09T03:09:22.751Z,101338.91
2018-08-09T03:11:51.682Z,101330.15
2018-08-09T03:14:20.589Z,101339.14
2018-08-09T03:16:49.515Z,101331.73
2018-08-09T03:19:18.447Z,101334.59
2018-08-09T03:21:47.347Z,101339.41
2018-08-09T03:24:16.499Z,101353.36
2018-08-09T03:26:45.340Z,101351.41
2018-08-09T03:29:14.232Z,101335.86
2018-08-09T03:31:43.119Z,101343.06
2018-08-09T03:34:12.011Z,101336.38
2018-08-09T03:36:43.849Z,101343.18
2018-08-09T03:39:13.271Z,101342.77
2018-08-09T03:41:42.181Z,101346.22
2018-08-09T03:44:11.111Z,101348.85
2018-08-09T03:46:40.055Z,101347.61
2018-08-09T03:49:09.023Z,101353.52
2018-08-09T03:51:37.952Z,101353.28
2018-08-09T03:54:06.897Z,101355.11
2018-08-09T03:56:35.797Z,101344.63
2018-08-09T03:59:04.679Z,101339.30
2018-08-09T04:01:33.660Z,101334.34
2018-08-09T04:04:02.575Z,101340.66
2018-08-09T04:06:31.492Z,101330.66
2018-08-09T04:09:01.205Z,101326.70
2018-08-09T04:11:30.125Z,101328.78
2018-08-09T04:13:59.121Z,101323.96
2018-08-09T04:16:28.014Z,101319.03
2018-08-09T04:18:56.957Z,101315.59
2018-08-09T04:21:25.916Z,101322.38
2018-08-09T04:23:54.821Z,101326.78
2018-08-09T04:26:23.727Z,101316.85
2018-08-09T04:28:52.651Z,101316.39
2018-08-09T04:31:21.580Z,101312.93
2018-08-09T04:33:51.179Z,101318.20
2018-08-09T04:36:20.157Z,101322.86
2018-08-09T04:38:49.083Z,101326.82
2018-08-09T04:41:18.052Z,101310.63
2018-08-09T04:43:46.965Z,101315.47
2018-08-09T04:46:15.946Z,101309.91
2018-08-09T04:48:50.468Z,101300.42
2018-08-09T04:51:19.404Z,101304.63
2018-08-09T04:53:48.319Z,101302.57
2018-08-09T04:56:17.241Z,101307.64
2018-08-09T04:58:46.172Z,101312.34
2018-08-09T05:01:15.054Z,101309.23
2018-08-09T05:03:43.980Z,101301.94
2018-08-09T05:06:14.702Z,101299.61
2018-08-09T05:08:43.585Z,101298.62
2018-08-09T05:11:12.542Z,101300.77
2018-08-09T05:13:41.467Z,101294.59
2018-08-09T05:16:10.411Z,101303.09
2018-08-09T05:18:39.387Z,101301.73
2018-08-09T05:21:08.775Z,101297.77
2018-08-09T05:23:37.720Z,101292.84
2018-08-09T05:26:06.972Z,101299.13
2018-08-09T05:28:36.947Z,101298.67
2018-08-09T05:31:05.920Z,101292.62
2018-08-09T05:33:34.927Z,101297.66
2018-08-09T05:36:03.914Z,101300.75
2018-08-09T05:38:32.956Z,101308.02
2018-08-09T05:41:01.883Z,101302.35
2018-08-09T05:43:30.847Z,101304.83
2018-08-09T05:45:59.767Z,101302.23
2018-08-09T05:48:28.808Z,101300.15
2018-08-09T05:50:57.840Z,101306.09
2018-08-09T05:53:26.742Z,101302.25
2018-08-09T05:55:55.689Z,101297.83
2018-08-09T05:58:24.659Z,101293.01
2018-08-09T06:00:53.700Z,101281.64
2018-08-09T06:03:22.676Z,101276.58
2018-08-09T06:05:51.663Z,101280.06
2018-08-09T06:08:20.572Z,101281.50
2018-08-09T06:10:49.553Z,101267.92
2018-08-09T06:13:18.479Z,101271.77
2018-08-09T06:15:47.445Z,101272.00
2018-08-09T06:18:16.383Z,101277.95
2018-08-09T06:20:45.339Z,101272.00
2018-08-09T06:23:14.406Z,101273.62
2018-08-09T06:25:43.364Z,101278.30
2018-08-09T06:28:12.404Z,101271.25
2018-08-09T06:30:41.360Z,101271.97
2018-08-09T06:33:10.296Z,101269.27
2018-08-09T06:35:39.752Z,101273.80
2018-08-09T06:38:08.697Z,101269.82
2018-08-09T06:40:37.715Z,101263.70
2018-08-09T06:43:06.695Z,101252.09
2018-08-09T06:45:35.617Z,101252.07
2018-08-09T06:48:04.597Z,101252.49
2018-08-09T06:50:33.504Z,101259.67
2018-08-09T06:53:02.489Z,101263.27
2018-08-09T06:55:31.407Z,101269.60
2018-08-09T06:58:00.324Z,101267.45
2018-08-09T07:00:43.033Z,101249.20
2018-08-09T07:03:11.962Z,101246.70
2018-08-09T07:05:40.877Z,101241.95
2018-08-09T07:08:09.875Z,101237.78
2018-08-09T07:10:38.872Z,101242.97
2018-08-09T07:13:07.836Z,101243.79
2018-08-09T07:15:36.897Z,101239.80
2018-08-09T07:18:06.096Z,101239.99
2018-08-09T07:20:35.135Z,101240.53
2018-08-09T07:23:04.254Z,101245.62
2018-08-09T07:25:33.416Z,101235.59
2018-08-09T07:28:02.983Z,101231.48
2018-08-09T07:30:32.207Z,101226.01
2018-08-09T07:33:01.258Z,101227.15
2018-08-09T07:35:30.238Z,101222.23
2018-08-09T07:37:59.487Z,101217.98
2018-08-09T07:40:28.543Z,101218.14
2018-08-09T07:42:57.679Z,101217.00
2018-08-09T07:45:26.628Z,101215.14
2018-08-09T07:47:55.628Z,101216.33
2018-08-09T07:50:24.651Z,101213.61
2018-08-09T07:52:53.602Z,101216.91
2018-08-09T07:55:22.598Z,101205.98
2018-08-09T07:57:52.660Z,101196.16
2018-08-09T08:00:21.608Z,101191.95
2018-08-09T08:02:50.634Z,101194.45
2018-08-09T08:05:19.696Z,101191.14
2018-08-09T08:07:48.847Z,101191.82
2018-08-09T08:10:17.847Z,101187.83
2018-08-09T08:12:46.896Z,101185.53
2018-08-09T08:15:16.008Z,101192.66
2018-08-09T08:17:45.048Z,101193.97
2018-08-09T08:20:14.064Z,101187.22
2018-08-09T08:22:43.006Z,101189.28
2018-08-09T08:25:11.972Z,101188.16
2018-08-09T08:27:40.960Z,101183.59
2018-08-09T08:30:12.089Z,101181.59
2018-08-09T08:32:41.846Z,101183.29
2018-08-09T08:35:11.181Z,101175.47
2018-08-09T08:37:40.832Z,101169.97
2018-08-09T08:40:10.492Z,101158.78
2018-08-09T08:42:39.607Z,101145.42
2018-08-09T08:45:11.348Z,101153.67
2018-08-09T08:47:40.453Z,101166.77
2018-08-09T08:50:09.612Z,101167.14
2018-08-09T08:52:39.666Z,101163.06
2018-08-09T08:55:10.248Z,101147.88
2018-08-09T08:57:39.442Z,101141.70
2018-08-09T09:00:10.502Z,101146.31
2018-08-09T09:02:40.414Z,101136.71
2018-08-09T09:05:11.552Z,101138.52
2018-08-09T09:07:46.019Z,101134.77
2018-08-09T09:10:20.475Z,101124.01
2018-08-09T09:12:49.439Z,101121.81
2018-08-09T09:15:18.430Z,101117.97
2018-08-09T09:17:47.439Z,101121.45
2018-08-09T09:20:18.020Z,101105.19
2018-08-09T09:22:46.971Z,101098.75
2018-08-09T09:25:15.974Z,101089.66
2018-08-09T09:27:45.015Z,101092.11
2018-08-09T09:30:16.487Z,101077.40
2018-08-09T09:32:45.955Z,101065.23
2018-08-09T09:35:14.950Z,101063.41
2018-08-09T09:37:49.551Z,101058.26
2018-08-09T09:40:24.071Z,101039.97
2018-08-09T09:42:53.020Z,101037.24
2018-08-09T09:45:22.123Z,101042.31
2018-08-09T09:47:51.136Z,101033.59
2018-08-09T09:50:20.048Z,101028.62
2018-08-09T09:52:51.137Z,101027.77
2018-08-09T09:55:20.072Z,101015.44
2018-08-09T09:57:49.042Z,101023.68
2018-08-09T10:00:23.355Z,101019.67
2018-08-09T10:02:52.399Z,101004.66
2018-08-09T10:05:21.310Z,101009.81
2018-08-09T10:07:50.364Z,101011.39
2018-08-09T10:10:19.662Z,101001.57
2018-08-09T10:12:48.698Z,100998.63
2018-08-09T10:15:17.718Z,100997.40
2018-08-09T10:17:46.749Z,100984.84
2018-08-09T10:20:15.744Z,100994.44
2018-08-09T10:22:44.742Z,101004.44
2018-08-09T10:25:13.695Z,101019.38
2018-08-09T10:27:42.682Z,101023.23
2018-08-09T10:30:11.607Z,101012.07
2018-08-09T10:32:40.530Z,101011.11
2018-08-09T10:35:09.661Z,100991.69
2018-08-09T10:37:38.903Z,100988.68
2018-08-09T10:40:07.905Z,100982.06
2018-08-09T10:42:36.953Z,100973.11
2018-08-09T10:45:06.023Z,100967.00
2018-08-09T10:47:35.160Z,100945.28
2018-08-09T10:50:04.242Z,100935.83
2018-08-09T10:52:33.347Z,100932.82
2018-08-09T10:55:02.251Z,100922.06
2018-08-09T10:57:31.185Z,100920.19
2018-08-09T11:00:00.194Z,100916.23
2018-08-09T11:02:29.190Z,100908.30
2018-08-09T11:04:58.113Z,100909.00
2018-08-09T11:07:27.043Z,100902.13
2018-08-09T11:09:58.048Z,100890.52
2018-08-09T11:12:27.030Z,100896.54
2018-08-09T11:14:56.024Z,100889.16
2018-08-09T11:17:24.915Z,100890.30
2018-08-09T11:19:53.939Z,100894.66
2018-08-09T11:22:22.863Z,100895.66
2018-08-09T11:24:51.789Z,100905.34
2018-08-09T11:27:20.807Z,100909.42
2018-08-09T11:29:49.829Z,100903.97
2018-08-09T11:32:18.743Z,100892.36
2018-08-09T11:34:47.781Z,100889.84
2018-08-09T11:37:22.321Z,100881.23
2018-08-09T11:39:56.683Z,100879.77
2018-08-09T11:42:25.617Z,100867.98
2018-08-09T11:44:54.525Z,100873.34
2018-08-09T11:47:29.133Z,100876.95
2018-08-09T11:49:58.202Z,100879.96
2018-08-09T11:52:27.117Z,100889.20
2018-08-09T11:54:56.031Z,100887.14
2018-08-09T11:57:24.943Z,100882.66
2018-08-09T11:59:53.867Z,100870.31
2018-08-09T12:02:22.797Z,100860.03
2018-08-09T12:04:51.767Z,100841.84
2018-08-09T12:07:20.812Z,100848.23
2018-08-09T12:10:52.761Z,100858.02
2018-08-09T12:13:21.753Z,100874.82
2018-08-09T12:15:50.803Z,100868.94
2018-08-09T12:18:20.233Z,100861.48
2018-08-09T12:20:49.190Z,100855.83
2018-08-09T12:23:18.142Z,100850.89
2018-08-09T12:25:47.186Z,100841.75
2018-08-09T12:28:16.246Z,100840.16
2018-08-09T12:30:45.176Z,100837.04
2018-08-09T12:33:14.260Z,100829.28
2018-08-09T12:35:43.198Z,100827.85
2018-08-09T12:38:12.080Z,100821.70
2018-08-09T12:40:41.091Z,100839.89
2018-08-09T12:43:10.792Z,100821.97
2018-08-09T12:45:39.969Z,100796.30
2018-08-09T12:48:08.963Z,100795.14
2018-08-09T12:50:37.999Z,100801.42
2018-08-09T12:53:06.927Z,100811.24
2018-08-09T12:55:35.880Z,100810.82
2018-08-09T12:58:10.346Z,100811.46
2018-08-09T13:00:44.869Z,100827.66
2018-08-09T13:03:13.840Z,100842.48
2018-08-09T13:05:42.902Z,100825.27
2018-08-09T13:08:11.953Z,100807.81
2018-08-09T13:10:41.014Z,100787.62
2018-08-09T13:13:10.047Z,100778.38
2018-08-09T13:15:39.009Z,100761.11
2018-08-09T13:18:08.247Z,100755.27
2018-08-09T13:20:37.181Z,100736.57
2018-08-09T13:23:06.120Z,100737.86
2018-08-09T13:25:35.157Z,100734.50
2018-08-09T13:28:04.127Z,100711.52
2018-08-09T13:30:33.117Z,100700.07
2018-08-09T13:33:02.202Z,100690.55
2018-08-09T13:35:31.427Z,100692.29
2018-08-09T13:38:00.398Z,100689.20
2018-08-09T13:40:29.424Z,100695.45
2018-08-09T13:42:58.478Z,100689.15
2018-08-09T13:45:27.516Z,100697.86
2018-08-09T13:47:56.457Z,100690.27
2018-08-09T13:50:25.423Z,100679.77
2018-08-09T13:52:54.311Z,100684.40
2018-08-09T13:55:23.269Z,100672.02
2018-08-09T13:57:52.327Z,100675.31
2018-08-09T14:00:21.288Z,100678.41
2018-08-09T14:02:50.235Z,100673.12
2018-08-09T14:05:19.239Z,100660.35
2018-08-09T14:07:48.170Z,100652.64
2018-08-09T14:10:22.673Z,100652.12
2018-08-09T14:12:51.558Z,100645.70
2018-08-09T14:15:20.505Z,100649.41
2018-08-09T14:17:49.688Z,100657.91
2018-08-09T14:20:18.881Z,100649.11
2018-08-09T14:22:47.865Z,100643.56
2018-08-09T14:25:16.888Z,100653.19
2018-08-09T14:27:45.849Z,100644.59
2018-08-09T14:30:18.018Z,100637.97
2018-08-09T14:32:46.959Z,100635.18
2018-08-09T14:35:19.424Z,100656.51
2018-08-09T14:37:48.505Z,100648.21
2018-08-09T14:40:17.427Z,100651.30
2018-08-09T14:42:49.791Z,100633.59
2018-08-09T14:45:18.797Z,100621.46
2018-08-09T14:47:48.926Z,100620.97
2018-08-09T14:50:17.807Z,100620.44
2018-08-09T14:52:46.763Z,100607.38
2018-08-09T14:55:15.672Z,100603.20
2018-08-09T14:57:44.680Z,100611.86
2018-08-09T15:00:16.492Z,100613.94
2018-08-09T15:02:46.118Z,100615.57
2018-08-09T15:05:16.678Z,100621.58
2018-08-09T15:07:51.211Z,100608.27
2018-08-09T15:10:21.268Z,100606.77
2018-08-09T15:12:51.045Z,100605.47
2018-08-09T15:15:20.139Z,100596.45
2018-08-09T15:17:49.117Z,100587.96
2018-08-09T15:20:19.363Z,100588.16
2018-08-09T15:22:49.344Z,100588.50
2018-08-09T15:25:18.916Z,100576.66
2018-08-09T15:27:48.057Z,100575.08
2018-08-09T15:30:18.291Z,100561.48
2018-08-09T15:32:47.722Z,100564.82
2018-08-09T15:35:17.685Z,100555.30
2018-08-09T15:37:46.672Z,100548.73
2018-08-09T15:40:16.174Z,100543.58
2018-08-09T15:42:45.214Z,100534.23
2018-08-09T15:45:15.293Z,100537.57
2018-08-09T15:47:44.390Z,100537.43
2018-08-09T15:50:16.302Z,100531.84
2018-08-09T15:52:45.443Z,100510.15
2018-08-09T15:55:19.896Z,100515.30
2018-08-09T15:57:49.065Z,100509.62
2018-08-09T16:00:20.294Z,100510.52
2018-08-09T16:02:49.373Z,100494.30
2018-08-09T16:05:18.686Z,100495.74
2018-08-09T16:07:49.211Z,100493.31
2018-08-09T16:10:18.856Z,100489.70
2018-08-09T16:12:48.919Z,100480.42
2018-08-09T16:15:20.508Z,100475.97
2018-08-09T16:17:50.111Z,100467.03
2018-08-09T16:20:19.102Z,100464.55
2018-08-09T16:22:48.094Z,100468.93
2018-08-09T16:25:19.124Z,100471.18
2018-08-09T16:27:50.065Z,100465.62
2018-08-09T16:30:23.181Z,100463.14
2018-08-09T16:32:52.905Z,100458.92
2018-08-09T16:35:22.245Z,100458.47
2018-08-09T16:37:51.658Z,100451.05
2018-08-09T16:40:23.006Z,100445.20
2018-08-09T16:42:52.094Z,100439.24
2018-08-09T16:45:22.152Z,100439.25
2018-08-09T16:47:52.080Z,100434.46
2018-08-09T16:50:23.123Z,100433.44
2018-08-09T16:52:52.490Z,100430.46
2018-08-09T16:55:22.733Z,100429.66
2018-08-09T16:57:51.758Z,100421.48
2018-08-09T17:00:22.314Z,100427.59
2018-08-09T17:02:52.580Z,100406.36
2018-08-09T17:08:06.321Z,100408.83
2018-08-09T17:10:42.670Z,100409.23
2018-08-09T17:13:14.850Z,100405.17
2018-08-09T17:15:48.592Z,100414.39
2018-08-09T17:18:36.160Z,100404.05
2018-08-09T17:21:08.389Z,100414.19
2018-08-09T17:26:38.116Z,100416.45
2018-08-09T17:29:09.150Z,100430.79
2018-08-09T17:31:38.738Z,100427.59
2018-08-09T17:34:12.230Z,100440.23
2018-08-09T17:36:42.178Z,100453.43
2018-08-09T17:39:12.430Z,100484.91
2018-08-09T17:41:41.559Z,100507.52
2018-08-09T17:44:12.498Z,100533.00
2018-08-09T17:46:42.101Z,100544.04
2018-08-09T17:49:11.218Z,100547.80
2018-08-09T17:51:40.181Z,100478.09
2018-08-09T17:54:09.880Z,100472.77
2018-08-09T17:56:38.894Z,100476.70
2018-08-09T17:59:07.872Z,100502.48
2018-08-09T18:01:37.056Z,100528.14
2018-08-09T18:04:06.244Z,100558.52
2018-08-09T18:06:35.435Z,100586.59
2018-08-09T18:09:07.756Z,100591.78
2018-08-09T18:11:36.804Z,100588.09
2018-08-09T18:14:08.011Z,100611.08
2018-08-09T18:16:37.918Z,100622.10
2018-08-09T18:19:07.474Z,100642.59
2018-08-09T18:21:36.681Z,100643.01
2018-08-09T18:24:05.921Z,100661.11
2018-08-09T18:26:34.954Z,100685.75
2018-08-09T18:29:04.313Z,100699.19
2018-08-09T18:31:33.756Z,100717.55
2018-08-09T18:34:04.793Z,100728.31
2018-08-09T18:36:33.914Z,100733.94
2018-08-09T18:39:06.610Z,100745.36
2018-08-09T18:41:39.150Z,100760.41
2018-08-09T18:44:08.160Z,100776.88
2018-08-09T18:46:37.211Z,100786.34
2018-08-09T18:49:06.290Z,100788.17
2018-08-09T18:51:35.336Z,100781.30
2018-08-09T18:54:06.396Z,100787.88
2018-08-09T18:56:35.384Z,100785.05
2018-08-09T18:59:04.468Z,100795.48
2018-08-09T19:01:33.612Z,100810.79
2018-08-09T19:04:02.581Z,100823.34
2018-08-09T19:06:31.543Z,100832.53
2018-08-09T19:09:01.826Z,100838.94
2018-08-09T19:11:30.735Z,100846.61
2018-08-09T19:13:59.775Z,100859.42
2018-08-09T19:16:28.768Z,100861.63
2018-08-09T19:18:58.029Z,100879.13
2018-08-09T19:21:27.104Z,100891.16
2018-08-09T19:23:56.118Z,100892.79
2018-08-09T19:26:28.933Z,100897.97
2018-08-09T19:28:57.995Z,100902.91
2018-08-09T19:31:26.965Z,100921.91
2018-08-09T19:33:56.009Z,100923.12
2018-08-09T19:36:25.875Z,100936.58
2018-08-09T19:38:55.298Z,100950.41
2018-08-09T19:41:24.336Z,100954.36
2018-08-09T19:43:53.414Z,100951.89
2018-08-09T19:46:22.480Z,100957.20
2018-08-09T19:48:56.981Z,100972.84
2018-08-09T19:51:30.204Z,100982.20
2018-08-09T19:53:59.429Z,100994.91
2018-08-09T19:56:28.718Z,100997.62
2018-08-09T19:58:57.745Z,101005.02
2018-08-09T20:01:26.744Z,101014.28
2018-08-09T20:03:55.703Z,101016.95
2018-08-09T20:06:25.375Z,101011.53
2018-08-09T20:08:54.312Z,101012.89
2018-08-09T20:11:23.410Z,101024.73
2018-08-09T20:13:52.449Z,101035.07
2018-08-09T20:16:21.466Z,101046.04
2018-08-09T20:18:50.530Z,101052.35
2018-08-09T20:21:19.472Z,101046.53
2018-08-09T20:23:48.372Z,101064.78
2018-08-09T20:26:17.292Z,101063.93
2018-08-09T20:28:46.283Z,101068.35
2018-08-09T20:31:15.229Z,101078.00
2018-08-09T20:33:44.259Z,101084.48
2018-08-09T20:36:13.170Z,101078.75
2018-08-09T20:38:42.191Z,101099.88
2018-08-09T20:41:11.199Z,101101.41
2018-08-09T20:43:40.065Z,101123.92
2018-08-09T20:46:09.027Z,101121.24
2018-08-09T20:48:37.956Z,101147.17
2018-08-09T20:51:07.325Z,101159.86
2018-08-09T20:53:36.292Z,101166.00
2018-08-09T20:56:06.225Z,101175.73
2018-08-09T20:58:35.207Z,101194.75
2018-08-09T21:01:04.211Z,101207.13
2018-08-09T21:03:33.252Z,101213.47
2018-08-09T21:06:02.336Z,101240.28
2018-08-09T21:08:31.271Z,101240.80
2018-08-09T21:11:00.204Z,101252.02
2018-08-09T21:13:29.172Z,101251.52
2018-08-09T21:15:58.210Z,101255.08
2018-08-09T21:18:27.265Z,101269.98
2018-08-09T21:20:56.290Z,101270.50
2018-08-09T21:23:25.270Z,101271.25
2018-08-09T21:25:54.229Z,101254.32
2018-08-09T21:28:23.238Z,101259.74
2018-08-09T21:30:52.256Z,101232.63
2018-08-09T21:33:21.221Z,101249.62
2018-08-09T21:35:50.199Z,101273.91
2018-08-09T21:38:19.105Z,101281.89
2018-08-09T21:40:48.124Z,101284.64
2018-08-09T21:43:17.008Z,101281.44
2018-08-09T21:45:45.942Z,101283.19
2018-08-09T21:48:14.863Z,101298.34
2018-08-09T21:50:43.866Z,101301.53
2018-08-09T21:53:12.778Z,101317.83
2018-08-09T21:55:41.751Z,101325.59
2018-08-09T21:58:11.562Z,101331.76
2018-08-09T22:00:51.078Z,101336.83
2018-08-09T22:03:22.077Z,101347.59
2018-08-09T22:05:56.357Z,101361.30
2018-08-09T22:08:30.574Z,101362.09
2018-08-09T22:11:04.703Z,101373.83
2018-08-09T22:13:38.859Z,101374.28
2018-08-09T22:16:13.152Z,101377.04
2018-08-09T22:18:47.398Z,101384.01
2018-08-09T22:21:21.647Z,101385.32
2018-08-09T22:23:50.613Z,101394.25
2018-08-09T22:26:19.562Z,101396.16
2018-08-09T22:28:48.496Z,101400.11
2018-08-09T22:31:17.499Z,101408.83
2018-08-09T22:33:46.675Z,101410.66
2018-08-09T22:36:15.709Z,101414.11
2018-08-09T22:38:44.672Z,101427.70
2018-08-09T22:41:13.561Z,101431.46
2018-08-09T22:43:42.492Z,101432.96
2018-08-09T22:46:11.431Z,101439.27
2018-08-09T22:48:40.341Z,101446.73
2018-08-09T22:51:09.410Z,101460.47
2018-08-09T22:53:38.445Z,101461.03
2018-08-09T22:56:07.361Z,101470.11
2018-08-09T22:58:36.257Z,101484.19
2018-08-09T23:01:05.576Z,101493.91
2018-08-09T23:03:34.546Z,101505.02
2018-08-09T23:06:03.678Z,101501.52
2018-08-09T23:08:32.599Z,101508.45
2018-08-09T23:11:01.536Z,101518.34
2018-08-09T23:13:30.467Z,101524.28
2018-08-09T23:15:59.464Z,101524.72
2018-08-09T23:18:28.485Z,101522.35
2018-08-09T23:20:57.396Z,101526.64
2018-08-09T23:23:26.313Z,101532.84
2018-08-09T23:25:55.223Z,101545.30
2018-08-09T23:28:24.151Z,101543.81
2018-08-09T23:30:53.172Z,101537.21
2018-08-09T23:33:23.017Z,101545.93
2018-08-09T23:35:52.005Z,101554.84
2018-08-09T23:38:21.051Z,101549.70
2018-08-09T23:40:50.140Z,101553.15
2018-08-09T23:43:19.078Z,101557.84
2018-08-09T23:45:48.020Z,101564.39
2018-08-09T23:48:17.039Z,101573.74
2018-08-09T23:50:45.932Z,101573.28
2018-08-09T23:53:14.899Z,101573.65
2018-08-09T23:55:43.948Z,101582.86
2018-08-09T23:58:12.884Z,101576.16
